sensor_id;sensor_type;location;lat;lon;timestamp;pressure;altitude;pressure_sealevel;temperature;humidity
40490;BME280;26196;52.302;10.572;2023-02-03T00:01:12;101069.16;;;10.23;57.00
40490;BME280;26196;52.302;10.572;2023-02-03T00:05:13;101068.31;;;10.22;57.56
40490;BME280;26196;52.302;10.572;2023-02-03T00:09:50;101059.53;;;10.25;57.93
40490;BME280;26196;52.302;10.572;2023-02-03T00:13:50;101054.31;;;10.23;57.86
40490;BME280;26196;52.302;10.572;2023-02-03T00:17:51;101053.41;;;10.26;57.94
40490;BME280;26196;52.302;10.572;2023-02-03T00:21:51;101048.13;;;10.29;57.89
40490;BME280;26196;52.302;10.572;2023-02-03T00:30:29;101038.56;;;10.28;57.89
40490;BME280;26196;52.302;10.572;2023-02-03T00:34:29;101029.81;;;10.31;58.03
40490;BME280;26196;52.302;10.572;2023-02-03T00:38:30;101027.22;;;10.29;58.08
40490;BME280;26196;52.302;10.572;2023-02-03T00:42:30;101020.19;;;10.31;58.36
40490;BME280;26196;52.302;10.572;2023-02-03T00:46:31;101008.88;;;10.31;58.00
40490;BME280;26196;52.302;10.572;2023-02-03T00:50:31;101015.81;;;10.32;58.28
40490;BME280;26196;52.302;10.572;2023-02-03T00:55:05;101004.50;;;10.31;57.83
40490;BME280;26196;52.302;10.572;2023-02-03T00:59:06;101007.13;;;10.31;58.50
40490;BME280;26196;52.302;10.572;2023-02-03T01:03:06;101012.34;;;10.33;57.89
40490;BME280;26196;52.302;10.572;2023-02-03T01:07:07;101007.09;;;10.33;58.39
40490;BME280;26196;52.302;10.572;2023-02-03T01:11:09;100995.72;;;10.35;58.24
40490;BME280;26196;52.302;10.572;2023-02-03T01:15:10;100999.22;;;10.34;57.99
40490;BME280;26196;52.302;10.572;2023-02-03T01:19:10;100992.19;;;10.36;58.18
40490;BME280;26196;52.302;10.572;2023-02-03T01:23:11;100981.81;;;10.33;58.07
40490;BME280;26196;52.302;10.572;2023-02-03T01:27:11;100986.19;;;10.33;58.52
40490;BME280;26196;52.302;10.572;2023-02-03T01:31:20;100977.41;;;10.34;58.60
40490;BME280;26196;52.302;10.572;2023-02-03T01:35:49;100989.59;;;10.35;58.24
40490;BME280;26196;52.302;10.572;2023-02-03T01:39:49;100986.94;;;10.38;58.18
40490;BME280;26196;52.302;10.572;2023-02-03T01:43:52;100985.25;;;10.35;58.47
40490;BME280;26196;52.302;10.572;2023-02-03T01:48:23;100986.91;;;10.39;58.24
40490;BME280;26196;52.302;10.572;2023-02-03T01:52:24;100971.28;;;10.36;58.48
40490;BME280;26196;52.302;10.572;2023-02-03T01:56:27;100959.94;;;10.36;58.27
40490;BME280;26196;52.302;10.572;2023-02-03T02:00:31;100972.09;;;10.38;58.30
40490;BME280;26196;52.302;10.572;2023-02-03T02:04:41;100952.03;;;10.37;58.47
40490;BME280;26196;52.302;10.572;2023-02-03T02:09:06;100939.81;;;10.39;58.42
40490;BME280;26196;52.302;10.572;2023-02-03T02:13:07;100935.47;;;10.38;58.26
40490;BME280;26196;52.302;10.572;2023-02-03T02:39:31;100897.16;;;10.34;59.72
40490;BME280;26196;52.302;10.572;2023-02-03T02:43:41;100891.09;;;10.32;60.03
40490;BME280;26196;52.302;10.572;2023-02-03T02:47:42;100882.31;;;10.36;59.97
40490;BME280;26196;52.302;10.572;2023-02-03T02:51:43;100868.38;;;10.34;60.17
40490;BME280;26196;52.302;10.572;2023-02-03T02:55:45;100839.56;;;10.36;59.88
40490;BME280;26196;52.302;10.572;2023-02-03T02:59:46;100822.97;;;10.37;59.66
40490;BME280;26196;52.302;10.572;2023-02-03T03:03:47;100812.41;;;10.41;60.12
40490;BME280;26196;52.302;10.572;2023-02-03T03:07:53;100813.31;;;10.40;60.05
40490;BME280;26196;52.302;10.572;2023-02-03T03:12:02;100808.09;;;10.40;60.35
40490;BME280;26196;52.302;10.572;2023-02-03T03:16:05;100816.88;;;10.38;60.34
40490;BME280;26196;52.302;10.572;2023-02-03T03:20:11;100836.88;;;10.40;60.84
40490;BME280;26196;52.302;10.572;2023-02-03T03:24:19;100841.28;;;10.38;60.59
40490;BME280;26196;52.302;10.572;2023-02-03T03:28:50;100842.16;;;10.37;60.77
40490;BME280;26196;52.302;10.572;2023-02-03T03:32:51;100836.19;;;10.31;61.04
40490;BME280;26196;52.302;10.572;2023-02-03T03:37:37;100829.19;;;10.33;61.40
40490;BME280;26196;52.302;10.572;2023-02-03T03:41:29;100814.28;;;10.35;61.58
40490;BME280;26196;52.302;10.572;2023-02-03T03:45:42;100820.44;;;10.34;61.11
40490;BME280;26196;52.302;10.572;2023-02-03T03:50:14;100834.38;;;10.34;61.37
40490;BME280;26196;52.302;10.572;2023-02-03T03:54:19;100812.56;;;10.35;61.65
40490;BME280;26196;52.302;10.572;2023-02-03T03:58:24;100802.09;;;10.35;61.46
40490;BME280;26196;52.302;10.572;2023-02-03T04:02:26;100800.34;;;10.34;61.46
40490;BME280;26196;52.302;10.572;2023-02-03T04:06:27;100808.19;;;10.34;61.75
40490;BME280;26196;52.302;10.572;2023-02-03T04:10:36;100810.81;;;10.34;61.64
40490;BME280;26196;52.302;10.572;2023-02-03T04:14:37;100798.63;;;10.33;62.30
40490;BME280;26196;52.302;10.572;2023-02-03T04:18:37;100802.03;;;10.38;61.71
40490;BME280;26196;52.302;10.572;2023-02-03T04:22:38;100788.09;;;10.36;62.22
40490;BME280;26196;52.302;10.572;2023-02-03T04:26:38;100779.34;;;10.37;61.77
40490;BME280;26196;52.302;10.572;2023-02-03T04:31:15;100777.63;;;10.36;61.92
40490;BME280;26196;52.302;10.572;2023-02-03T04:35:15;100774.09;;;10.39;61.98
40490;BME280;26196;52.302;10.572;2023-02-03T04:39:16;100780.28;;;10.35;62.67
40490;BME280;26196;52.302;10.572;2023-02-03T04:43:16;100789.00;;;10.35;62.71
40490;BME280;26196;52.302;10.572;2023-02-03T04:52:08;100786.41;;;10.35;62.36
40490;BME280;26196;52.302;10.572;2023-02-03T04:56:08;100783.72;;;10.37;62.79
40490;BME280;26196;52.302;10.572;2023-02-03T05:00:09;100775.84;;;10.38;62.55
40490;BME280;26196;52.302;10.572;2023-02-03T05:04:09;100756.69;;;10.36;62.28
40490;BME280;26196;52.302;10.572;2023-02-03T05:08:47;100745.41;;;10.34;62.53
40490;BME280;26196;52.302;10.572;2023-02-03T05:12:47;100751.47;;;10.36;62.46
40490;BME280;26196;52.302;10.572;2023-02-03T05:16:47;100730.53;;;10.36;62.74
40490;BME280;26196;52.302;10.572;2023-02-03T05:20:48;100718.22;;;10.40;62.92
40490;BME280;26196;52.302;10.572;2023-02-03T05:34:37;100719.25;;;10.34;62.91
40490;BME280;26196;52.302;10.572;2023-02-03T05:39:14;100706.22;;;10.31;63.22
40490;BME280;26196;52.302;10.572;2023-02-03T05:48:26;100680.16;;;10.28;63.77
40490;BME280;26196;52.302;10.572;2023-02-03T05:52:26;100687.22;;;10.23;63.94
40490;BME280;26196;52.302;10.572;2023-02-03T05:57:03;100689.00;;;10.21;64.26
40490;BME280;26196;52.302;10.572;2023-02-03T06:01:03;100697.66;;;10.23;64.08
40490;BME280;26196;52.302;10.572;2023-02-03T06:05:38;100687.22;;;10.23;64.30
40490;BME280;26196;52.302;10.572;2023-02-03T06:09:40;100689.75;;;10.26;63.96
40490;BME280;26196;52.302;10.572;2023-02-03T06:13:40;100680.22;;;10.22;64.48
40490;BME280;26196;52.302;10.572;2023-02-03T06:17:45;100687.22;;;10.21;64.53
40490;BME280;26196;52.302;10.572;2023-02-03T06:21:45;100688.91;;;10.24;64.81
40490;BME280;26196;52.302;10.572;2023-02-03T06:30:23;100693.19;;;10.29;64.13
40490;BME280;26196;52.302;10.572;2023-02-03T06:34:23;100685.41;;;10.25;64.69
40490;BME280;26196;52.302;10.572;2023-02-03T06:38:24;100682.81;;;10.23;64.45
40490;BME280;26196;52.302;10.572;2023-02-03T06:42:24;100683.59;;;10.27;64.95
40490;BME280;26196;52.302;10.572;2023-02-03T06:46:25;100671.44;;;10.27;64.51
40490;BME280;26196;52.302;10.572;2023-02-03T06:50:29;100664.44;;;10.28;64.82
40490;BME280;26196;52.302;10.572;2023-02-03T06:55:03;100657.44;;;10.27;65.09
40490;BME280;26196;52.302;10.572;2023-02-03T06:59:04;100647.06;;;10.24;65.48
40490;BME280;26196;52.302;10.572;2023-02-03T07:03:04;100634.88;;;10.23;65.04
40490;BME280;26196;52.302;10.572;2023-02-03T07:07:05;100627.13;;;10.20;65.64
40490;BME280;26196;52.302;10.572;2023-02-03T07:11:05;100622.84;;;10.16;65.57
40490;BME280;26196;52.302;10.572;2023-02-03T07:15:06;100625.47;;;10.16;65.83
40490;BME280;26196;52.302;10.572;2023-02-03T07:19:06;100620.22;;;10.16;65.64
40490;BME280;26196;52.302;10.572;2023-02-03T07:23:07;100599.34;;;10.14;65.62
40490;BME280;26196;52.302;10.572;2023-02-03T07:27:42;100615.81;;;10.18;65.99
40490;BME280;26196;52.302;10.572;2023-02-03T07:31:42;100627.91;;;10.22;66.03
40490;BME280;26196;52.302;10.572;2023-02-03T07:35:43;100619.34;;;10.17;65.94
40490;BME280;26196;52.302;10.572;2023-02-03T07:39:43;100645.44;;;10.20;65.64
40490;BME280;26196;52.302;10.572;2023-02-03T07:43:45;100621.22;;;10.12;65.96
40490;BME280;26196;52.302;10.572;2023-02-03T07:47:45;100619.38;;;10.15;65.80
40490;BME280;26196;52.302;10.572;2023-02-03T07:51:46;100613.22;;;10.18;65.79
40490;BME280;26196;52.302;10.572;2023-02-03T07:55:46;100599.31;;;10.16;65.93
40490;BME280;26196;52.302;10.572;2023-02-03T07:59:46;100604.53;;;10.16;66.47
40490;BME280;26196;52.302;10.572;2023-02-03T08:08:21;100583.69;;;10.13;66.16
40490;BME280;26196;52.302;10.572;2023-02-03T08:12:22;100594.81;;;10.21;65.67
40490;BME280;26196;52.302;10.572;2023-02-03T08:16:22;100608.81;;;10.20;66.39
40490;BME280;26196;52.302;10.572;2023-02-03T08:20:59;100597.50;;;10.18;66.38
40490;BME280;26196;52.302;10.572;2023-02-03T08:25:02;100605.38;;;10.18;66.62
40490;BME280;26196;52.302;10.572;2023-02-03T08:29:03;100592.31;;;10.16;66.19
40490;BME280;26196;52.302;10.572;2023-02-03T08:33:03;100607.97;;;10.18;66.56
40490;BME280;26196;52.302;10.572;2023-02-03T08:37:41;100599.31;;;10.16;66.87
40490;BME280;26196;52.302;10.572;2023-02-03T08:41:41;100586.22;;;10.16;66.50
40490;BME280;26196;52.302;10.572;2023-02-03T08:45:41;100564.44;;;10.15;66.69
40490;BME280;26196;52.302;10.572;2023-02-03T08:49:42;100572.97;;;10.22;66.40
40490;BME280;26196;52.302;10.572;2023-02-03T08:53:42;100578.34;;;10.17;66.90
40490;BME280;26196;52.302;10.572;2023-02-03T08:57:42;100566.41;;;10.07;67.05
40490;BME280;26196;52.302;10.572;2023-02-03T09:02:18;100543.72;;;10.06;67.42
40490;BME280;26196;52.302;10.572;2023-02-03T09:06:18;100553.34;;;10.05;67.71
40490;BME280;26196;52.302;10.572;2023-02-03T09:10:19;100562.78;;;10.11;66.84
40490;BME280;26196;52.302;10.572;2023-02-03T09:14:19;100565.28;;;10.16;66.94
40490;BME280;26196;52.302;10.572;2023-02-03T09:18:19;100553.06;;;10.18;66.73
40490;BME280;26196;52.302;10.572;2023-02-03T09:22:20;100551.34;;;10.17;67.16
40490;BME280;26196;52.302;10.572;2023-02-03T09:26:20;100548.66;;;10.18;67.46
40490;BME280;26196;52.302;10.572;2023-02-03T09:30:20;100562.78;;;10.11;67.55
40490;BME280;26196;52.302;10.572;2023-02-03T09:34:55;100571.53;;;10.10;68.00
40490;BME280;26196;52.302;10.572;2023-02-03T09:38:56;100574.06;;;10.15;67.86
40490;BME280;26196;52.302;10.572;2023-02-03T09:47:09;100562.00;;;10.09;68.12
40490;BME280;26196;52.302;10.572;2023-02-03T09:51:41;100562.00;;;10.07;68.40
40490;BME280;26196;52.302;10.572;2023-02-03T09:55:46;100559.47;;;10.04;68.99
40490;BME280;26196;52.302;10.572;2023-02-03T09:59:48;100548.91;;;10.09;68.41
40490;BME280;26196;52.302;10.572;2023-02-03T10:04:12;100560.97;;;10.15;68.16
40490;BME280;26196;52.302;10.572;2023-02-03T10:13:04;100562.00;;;10.07;69.25
40490;BME280;26196;52.302;10.572;2023-02-03T10:21:41;100565.38;;;10.13;69.02
40490;BME280;26196;52.302;10.572;2023-02-03T10:25:48;100572.28;;;10.17;68.75
40490;BME280;26196;52.302;10.572;2023-02-03T10:30:00;100589.66;;;10.19;68.72
40490;BME280;26196;52.302;10.572;2023-02-03T10:34:14;100581.00;;;10.16;69.21
40490;BME280;26196;52.302;10.572;2023-02-03T10:38:29;100576.63;;;10.16;69.00
40490;BME280;26196;52.302;10.572;2023-02-03T10:42:33;100596.66;;;10.17;68.81
40490;BME280;26196;52.302;10.572;2023-02-03T10:46:52;100627.13;;;10.18;68.90
40490;BME280;26196;52.302;10.572;2023-02-03T10:50:53;100675.06;;;10.20;68.81
40490;BME280;26196;52.302;10.572;2023-02-03T10:55:29;100641.16;;;10.16;69.47
40490;BME280;26196;52.302;10.572;2023-02-03T10:59:33;100615.00;;;10.16;69.16
40490;BME280;26196;52.302;10.572;2023-02-03T11:03:34;100616.59;;;10.21;69.09
40490;BME280;26196;52.302;10.572;2023-02-03T11:07:34;100641.88;;;10.22;68.86
40490;BME280;26196;52.302;10.572;2023-02-03T11:16:15;100640.16;;;10.21;68.17
40490;BME280;26196;52.302;10.572;2023-02-03T11:20:16;100637.66;;;10.17;67.63
40490;BME280;26196;52.302;10.572;2023-02-03T11:28:26;100664.16;;;10.01;67.94
40490;BME280;26196;52.302;10.572;2023-02-03T11:32:34;100657.25;;;9.99;67.80
40490;BME280;26196;52.302;10.572;2023-02-03T11:36:35;100667.78;;;9.94;67.98
40490;BME280;26196;52.302;10.572;2023-02-03T11:40:36;100633.03;;;9.91;67.22
40490;BME280;26196;52.302;10.572;2023-02-03T11:49:40;100673.78;;;9.99;67.13
40490;BME280;26196;52.302;10.572;2023-02-03T11:53:57;100680.72;;;10.00;67.36
40490;BME280;26196;52.302;10.572;2023-02-03T11:58:12;100685.13;;;9.98;67.11
40490;BME280;26196;52.302;10.572;2023-02-03T12:06:59;100702.84;;;9.85;67.73
40490;BME280;26196;52.302;10.572;2023-02-03T12:11:25;100689.72;;;9.87;67.67
40490;BME280;26196;52.302;10.572;2023-02-03T12:29:09;100689.59;;;9.93;67.64
40490;BME280;26196;52.302;10.572;2023-02-03T12:33:16;100704.34;;;9.96;67.86
40490;BME280;26196;52.302;10.572;2023-02-03T12:37:28;100729.63;;;9.97;68.32
40490;BME280;26196;52.302;10.572;2023-02-03T12:41:34;100720.81;;;10.01;67.64
40490;BME280;26196;52.302;10.572;2023-02-03T12:45:36;100718.16;;;10.04;68.01
40490;BME280;26196;52.302;10.572;2023-02-03T12:49:50;100733.84;;;10.04;67.38
40490;BME280;26196;52.302;10.572;2023-02-03T12:53:56;100727.84;;;9.99;66.92
40490;BME280;26196;52.302;10.572;2023-02-03T12:58:01;100722.63;;;9.97;67.17
40490;BME280;26196;52.302;10.572;2023-02-03T13:02:23;100724.41;;;9.95;66.88
40490;BME280;26196;52.302;10.572;2023-02-03T13:06:32;100732.25;;;9.97;66.40
40490;BME280;26196;52.302;10.572;2023-02-03T13:10:49;100733.94;;;9.99;66.07
40490;BME280;26196;52.302;10.572;2023-02-03T13:15:29;100735.56;;;10.03;66.00
40490;BME280;26196;52.302;10.572;2023-02-03T13:20:11;100745.09;;;10.06;66.13
40490;BME280;26196;52.302;10.572;2023-02-03T13:24:46;100745.25;;;10.00;65.15
40490;BME280;26196;52.302;10.572;2023-02-03T13:52:44;100746.84;;;9.65;61.40
40490;BME280;26196;52.302;10.572;2023-02-03T13:57:20;100764.38;;;9.58;60.40
40490;BME280;26196;52.302;10.572;2023-02-03T14:01:52;100769.69;;;9.54;60.41
40490;BME280;26196;52.302;10.572;2023-02-03T14:24:05;100787.03;;;9.59;60.83
40490;BME280;26196;52.302;10.572;2023-02-03T14:28:39;100798.28;;;9.61;60.41
40490;BME280;26196;52.302;10.572;2023-02-03T14:33:15;100804.34;;;9.63;60.37
40490;BME280;26196;52.302;10.572;2023-02-03T15:01:23;100848.66;;;9.70;59.33
40490;BME280;26196;52.302;10.572;2023-02-03T15:05:33;100844.22;;;9.75;58.74
40490;BME280;26196;52.302;10.572;2023-02-03T15:23:19;100857.53;;;9.62;57.66
40490;BME280;26196;52.302;10.572;2023-02-03T15:32:23;100861.00;;;9.61;56.90
40490;BME280;26196;52.302;10.572;2023-02-03T15:36:48;100875.09;;;9.54;57.34
40490;BME280;26196;52.302;10.572;2023-02-03T15:40:53;100880.28;;;9.56;56.71
40490;BME280;26196;52.302;10.572;2023-02-03T15:54:43;100913.53;;;9.46;56.81
40490;BME280;26196;52.302;10.572;2023-02-03T15:58:52;100926.56;;;9.48;56.69
40490;BME280;26196;52.302;10.572;2023-02-03T16:03:31;100925.63;;;9.53;57.11
40490;BME280;26196;52.302;10.572;2023-02-03T16:17:25;100964.09;;;9.43;56.19
40490;BME280;26196;52.302;10.572;2023-02-03T16:22:00;100947.66;;;9.35;54.86
40490;BME280;26196;52.302;10.572;2023-02-03T16:26:14;100964.25;;;9.33;55.79
40490;BME280;26196;52.302;10.572;2023-02-03T16:30:21;100945.22;;;9.25;55.33
40490;BME280;26196;52.302;10.572;2023-02-03T16:34:52;100950.31;;;9.34;55.36
40490;BME280;26196;52.302;10.572;2023-02-03T16:39:12;100946.00;;;9.30;55.38
40490;BME280;26196;52.302;10.572;2023-02-03T16:43:46;100950.38;;;9.28;55.14
40490;BME280;26196;52.302;10.572;2023-02-03T16:48:20;100966.84;;;9.33;55.42
40490;BME280;26196;52.302;10.572;2023-02-03T16:52:58;100966.09;;;9.25;56.03
40490;BME280;26196;52.302;10.572;2023-02-03T17:06:49;100961.72;;;9.27;55.18
40490;BME280;26196;52.302;10.572;2023-02-03T17:11:27;100959.16;;;9.24;54.99
40490;BME280;26196;52.302;10.572;2023-02-03T17:20:05;100966.16;;;9.22;55.72
40490;BME280;26196;52.302;10.572;2023-02-03T17:24:39;100962.66;;;9.23;55.37
40490;BME280;26196;52.302;10.572;2023-02-03T17:38:36;100987.97;;;9.17;56.34
40490;BME280;26196;52.302;10.572;2023-02-03T17:47:45;101008.84;;;9.20;56.54
40490;BME280;26196;52.302;10.572;2023-02-03T17:52:21;101011.50;;;9.16;55.66
40490;BME280;26196;52.302;10.572;2023-02-03T17:56:58;101024.56;;;9.16;56.16
40490;BME280;26196;52.302;10.572;2023-02-03T18:01:35;101028.88;;;9.18;56.66
40490;BME280;26196;52.302;10.572;2023-02-03T18:06:11;101035.03;;;9.14;56.99
40490;BME280;26196;52.302;10.572;2023-02-03T18:10:46;101055.88;;;9.17;56.08
40490;BME280;26196;52.302;10.572;2023-02-03T18:19:23;101088.16;;;9.12;57.72
40490;BME280;26196;52.302;10.572;2023-02-03T18:33:12;101108.06;;;9.24;59.31
40490;BME280;26196;52.302;10.572;2023-02-03T18:37:49;101120.19;;;9.28;59.17
40490;BME280;26196;52.302;10.572;2023-02-03T18:42:25;101113.25;;;9.27;60.05
40490;BME280;26196;52.302;10.572;2023-02-03T18:47:02;101125.41;;;9.29;59.32
40490;BME280;26196;52.302;10.572;2023-02-03T18:56:16;101155.94;;;9.23;60.27
40490;BME280;26196;52.302;10.572;2023-02-03T19:00:51;101135.94;;;9.23;60.20
40490;BME280;26196;52.302;10.572;2023-02-03T19:05:28;101141.16;;;9.23;59.39
40490;BME280;26196;52.302;10.572;2023-02-03T19:10:05;101147.38;;;9.13;60.13
40490;BME280;26196;52.302;10.572;2023-02-03T19:14:40;101170.91;;;9.07;60.56
40490;BME280;26196;52.302;10.572;2023-02-03T19:19:18;101162.13;;;9.12;60.10
40490;BME280;26196;52.302;10.572;2023-02-03T19:28:15;101175.31;;;9.03;60.43
40490;BME280;26196;52.302;10.572;2023-02-03T19:32:50;101189.25;;;9.01;60.95
40490;BME280;26196;52.302;10.572;2023-02-03T19:41:27;101190.03;;;9.10;60.74
40490;BME280;26196;52.302;10.572;2023-02-03T19:45:29;101190.91;;;9.09;61.50
40490;BME280;26196;52.302;10.572;2023-02-03T19:49:30;101198.72;;;9.12;61.37
40490;BME280;26196;52.302;10.572;2023-02-03T19:53:30;101194.44;;;9.04;61.68
40490;BME280;26196;52.302;10.572;2023-02-03T19:58:05;101201.44;;;9.05;61.02
40490;BME280;26196;52.302;10.572;2023-02-03T20:02:05;101200.53;;;9.06;61.32
40490;BME280;26196;52.302;10.572;2023-02-03T20:06:05;101204.94;;;9.02;61.39
40490;BME280;26196;52.302;10.572;2023-02-03T20:10:06;101209.28;;;9.00;61.87
40490;BME280;26196;52.302;10.572;2023-02-03T20:14:07;101219.81;;;8.91;61.28
40490;BME280;26196;52.302;10.572;2023-02-03T20:18:44;101218.06;;;8.94;61.96
40490;BME280;26196;52.302;10.572;2023-02-03T20:22:45;101226.78;;;8.92;61.87
40490;BME280;26196;52.302;10.572;2023-02-03T20:27:22;101228.47;;;8.97;62.10
40490;BME280;26196;52.302;10.572;2023-02-03T20:31:57;101241.53;;;8.96;61.70
40490;BME280;26196;52.302;10.572;2023-02-03T20:41:10;101254.66;;;8.87;62.12
40490;BME280;26196;52.302;10.572;2023-02-03T20:45:45;101267.69;;;8.90;61.91
40490;BME280;26196;52.302;10.572;2023-02-03T20:50:21;101264.22;;;8.88;62.53
40490;BME280;26196;52.302;10.572;2023-02-03T20:54:55;101258.19;;;8.81;63.16
40490;BME280;26196;52.302;10.572;2023-02-03T20:59:33;101260.72;;;8.89;62.91
40490;BME280;26196;52.302;10.572;2023-02-03T21:08:42;101266.00;;;8.84;62.83
40490;BME280;26196;52.302;10.572;2023-02-03T21:13:18;101286.00;;;8.87;62.55
40490;BME280;26196;52.302;10.572;2023-02-03T21:17:54;101289.41;;;8.93;62.49
40490;BME280;26196;52.302;10.572;2023-02-03T21:22:29;101303.34;;;8.91;62.61
40490;BME280;26196;52.302;10.572;2023-02-03T21:26:32;101306.00;;;8.88;63.23
40490;BME280;26196;52.302;10.572;2023-02-03T21:30:33;101324.28;;;8.83;63.43
40490;BME280;26196;52.302;10.572;2023-02-03T21:34:34;101334.75;;;8.85;62.82
40490;BME280;26196;52.302;10.572;2023-02-03T21:43:16;101348.59;;;8.91;63.63
40490;BME280;26196;52.302;10.572;2023-02-03T21:47:51;101366.03;;;8.92;62.64
40490;BME280;26196;52.302;10.572;2023-02-03T21:51:51;101372.13;;;8.90;62.92
40490;BME280;26196;52.302;10.572;2023-02-03T21:56:27;101381.66;;;8.94;62.61
40490;BME280;26196;52.302;10.572;2023-02-03T22:00:35;101407.78;;;8.97;62.94
40490;BME280;26196;52.302;10.572;2023-02-03T22:05:13;101404.28;;;8.93;63.44
40490;BME280;26196;52.302;10.572;2023-02-03T22:09:15;101403.47;;;8.90;63.11
40490;BME280;26196;52.302;10.572;2023-02-03T22:13:16;101419.13;;;8.84;63.12
40490;BME280;26196;52.302;10.572;2023-02-03T22:17:17;101436.56;;;8.80;63.73
40490;BME280;26196;52.302;10.572;2023-02-03T22:21:51;101434.81;;;8.81;63.21
40490;BME280;26196;52.302;10.572;2023-02-03T22:25:52;101440.09;;;8.74;63.79
40490;BME280;26196;52.302;10.572;2023-02-03T22:29:53;101466.19;;;8.74;63.93
40490;BME280;26196;52.302;10.572;2023-02-03T22:33:55;101461.84;;;8.72;63.45
40490;BME280;26196;52.302;10.572;2023-02-03T22:37:56;101472.28;;;8.73;62.71
40490;BME280;26196;52.302;10.572;2023-02-03T22:41:56;101478.34;;;8.75;63.74
40490;BME280;26196;52.302;10.572;2023-02-03T22:45:56;101481.84;;;8.73;62.87
40490;BME280;26196;52.302;10.572;2023-02-03T22:49:57;101490.56;;;8.73;63.39
40490;BME280;26196;52.302;10.572;2023-02-03T22:53:57;101501.91;;;8.66;62.99
40490;BME280;26196;52.302;10.572;2023-02-03T22:57:58;101512.31;;;8.65;63.21
40490;BME280;26196;52.302;10.572;2023-02-03T23:02:32;101508.03;;;8.50;63.67
40490;BME280;26196;52.302;10.572;2023-02-03T23:06:32;101537.56;;;8.61;63.85
40490;BME280;26196;52.302;10.572;2023-02-03T23:10:33;101541.03;;;8.65;63.13
40490;BME280;26196;52.302;10.572;2023-02-03T23:19:10;101560.19;;;8.59;63.59
40490;BME280;26196;52.302;10.572;2023-02-03T23:23:11;101567.13;;;8.60;63.15
40490;BME280;26196;52.302;10.572;2023-02-03T23:27:13;101586.28;;;8.62;62.92
40490;BME280;26196;52.302;10.572;2023-02-03T23:31:47;101593.22;;;8.60;62.82
40490;BME280;26196;52.302;10.572;2023-02-03T23:35:47;101603.69;;;8.57;62.78
40490;BME280;26196;52.302;10.572;2023-02-03T23:39:49;101612.38;;;8.47;63.39
40490;BME280;26196;52.302;10.572;2023-02-03T23:43:49;101630.66;;;8.51;62.75
40490;BME280;26196;52.302;10.572;2023-02-03T23:47:50;101668.94;;;8.48;63.87
40490;BME280;26196;52.302;10.572;2023-02-03T23:51:50;101678.50;;;8.47;63.50
40490;BME280;26196;52.302;10.572;2023-02-03T23:56:28;101694.16;;;8.50;63.06
